sensor_id;sensor_type;location;lat;lon;timestamp;pressure;altitude;pressure_sealevel;temperature;humidity
60646;BME280;46462;32.608;-117.032;2023-03-14T00:02:14;99639.12;;;25.36;43.00
60646;BME280;46462;32.608;-117.032;2023-03-14T00:04:45;99627.49;;;25.40;42.78
60646;BME280;46462;32.608;-117.032;2023-03-14T00:07:16;99626.48;;;25.87;41.70
60646;BME280;46462;32.608;-117.032;2023-03-14T00:09:47;99629.86;;;26.14;41.05
60646;BME280;46462;32.608;-117.032;2023-03-14T00:12:17;99635.22;;;26.39;40.45
60646;BME280;46462;32.608;-117.032;2023-03-14T00:14:48;99640.26;;;26.50;40.18
60646;BME280;46462;32.608;-117.032;2023-03-14T00:17:19;99647.98;;;26.66;39.80
60646;BME280;46462;32.608;-117.032;2023-03-14T00:19:49;99660.59;;;26.77;39.60
60646;BME280;46462;32.608;-117.032;2023-03-14T00:22:20;99667.65;;;26.86;39.39
60646;BME280;46462;32.608;-117.032;2023-03-14T00:24:52;99671.34;;;26.92;39.20
60646;BME280;46462;32.608;-117.032;2023-03-14T00:27:22;99680.62;;;26.96;39.06
60646;BME280;46462;32.608;-117.032;2023-03-14T00:29:52;99679.23;;;27.00;38.97
60646;BME280;46462;32.608;-117.032;2023-03-14T00:32:23;99671.99;;;27.05;38.90
60646;BME280;46462;32.608;-117.032;2023-03-14T00:34:54;99674.86;;;27.07;38.83
60646;BME280;46462;32.608;-117.032;2023-03-14T00:37:24;99680.26;;;27.15;38.67
60646;BME280;46462;32.608;-117.032;2023-03-14T00:39:55;99679.07;;;27.18;38.59
60646;BME280;46462;32.608;-117.032;2023-03-14T00:42:26;99677.36;;;27.23;38.45
60646;BME280;46462;32.608;-117.032;2023-03-14T00:44:57;99675.58;;;27.23;38.44
60646;BME280;46462;32.608;-117.032;2023-03-14T00:47:27;99677.01;;;27.24;38.42
60646;BME280;46462;32.608;-117.032;2023-03-14T00:49:58;99674.81;;;27.31;38.27
60646;BME280;46462;32.608;-117.032;2023-03-14T00:52:29;99671.74;;;27.34;38.21
60646;BME280;46462;32.608;-117.032;2023-03-14T00:54:59;99676.04;;;27.32;38.31
60646;BME280;46462;32.608;-117.032;2023-03-14T00:57:30;99682.20;;;27.36;38.26
60646;BME280;46462;32.608;-117.032;2023-03-14T01:00:01;99682.93;;;27.35;38.26
60646;BME280;46462;32.608;-117.032;2023-03-14T01:02:31;99683.62;;;27.42;38.20
60646;BME280;46462;32.608;-117.032;2023-03-14T01:05:02;99681.06;;;27.43;38.16
60646;BME280;46462;32.608;-117.032;2023-03-14T01:07:33;99679.35;;;27.47;38.08
60646;BME280;46462;32.608;-117.032;2023-03-14T01:10:08;99680.71;;;27.45;38.09
60646;BME280;46462;32.608;-117.032;2023-03-14T01:12:37;99682.52;;;27.48;38.05
60646;BME280;46462;32.608;-117.032;2023-03-14T01:15:08;99689.62;;;27.48;38.13
60646;BME280;46462;32.608;-117.032;2023-03-14T01:17:38;99691.54;;;27.54;38.06
60646;BME280;46462;32.608;-117.032;2023-03-14T01:20:12;99692.62;;;27.52;38.08
60646;BME280;46462;32.608;-117.032;2023-03-14T01:22:40;99694.24;;;27.52;38.10
60646;BME280;46462;32.608;-117.032;2023-03-14T01:25:13;99690.11;;;27.53;38.12
60646;BME280;46462;32.608;-117.032;2023-03-14T01:27:41;99690.05;;;27.56;38.02
60646;BME280;46462;32.608;-117.032;2023-03-14T01:30:13;99687.40;;;27.55;38.02
60646;BME280;46462;32.608;-117.032;2023-03-14T01:32:42;99687.89;;;27.54;37.98
60646;BME280;46462;32.608;-117.032;2023-03-14T01:35:13;99687.74;;;27.52;37.98
60646;BME280;46462;32.608;-117.032;2023-03-14T01:37:48;99689.47;;;27.52;37.94
60646;BME280;46462;32.608;-117.032;2023-03-14T01:40:14;99692.60;;;27.48;37.97
60646;BME280;46462;32.608;-117.032;2023-03-14T01:42:47;99689.59;;;27.48;37.94
60646;BME280;46462;32.608;-117.032;2023-03-14T01:47:46;99682.84;;;27.47;37.93
60646;BME280;46462;32.608;-117.032;2023-03-14T01:50:17;99680.11;;;27.46;37.96
60646;BME280;46462;32.608;-117.032;2023-03-14T01:52:49;99678.37;;;27.47;37.90
60646;BME280;46462;32.608;-117.032;2023-03-14T01:55:21;99681.78;;;27.45;37.93
60646;BME280;46462;32.608;-117.032;2023-03-14T01:57:51;99688.62;;;27.44;37.93
60646;BME280;46462;32.608;-117.032;2023-03-14T02:00:21;99691.94;;;27.42;37.97
60646;BME280;46462;32.608;-117.032;2023-03-14T02:02:53;99693.63;;;27.41;37.98
60646;BME280;46462;32.608;-117.032;2023-03-14T02:05:24;99696.37;;;27.38;38.08
60646;BME280;46462;32.608;-117.032;2023-03-14T02:07:53;99699.11;;;27.39;37.99
60646;BME280;46462;32.608;-117.032;2023-03-14T02:10:25;99696.63;;;27.35;38.11
60646;BME280;46462;32.608;-117.032;2023-03-14T02:12:55;99694.04;;;27.32;38.20
60646;BME280;46462;32.608;-117.032;2023-03-14T02:15:24;99692.33;;;27.26;38.37
60646;BME280;46462;32.608;-117.032;2023-03-14T02:17:54;99690.37;;;27.23;38.41
60646;BME280;46462;32.608;-117.032;2023-03-14T02:20:30;99685.62;;;27.18;38.52
60646;BME280;46462;32.608;-117.032;2023-03-14T02:22:56;99684.48;;;27.16;38.52
60646;BME280;46462;32.608;-117.032;2023-03-14T02:25:35;99686.37;;;27.13;38.57
60646;BME280;46462;32.608;-117.032;2023-03-14T02:27:57;99691.08;;;27.11;38.60
60646;BME280;46462;32.608;-117.032;2023-03-14T02:30:30;99688.26;;;27.06;38.71
60646;BME280;46462;32.608;-117.032;2023-03-14T02:33:00;99688.19;;;27.00;38.80
60646;BME280;46462;32.608;-117.032;2023-03-14T02:35:33;99685.43;;;26.96;38.89
60646;BME280;46462;32.608;-117.032;2023-03-14T02:38:05;99688.82;;;26.95;38.86
60646;BME280;46462;32.608;-117.032;2023-03-14T02:40:30;99685.03;;;26.91;38.92
60646;BME280;46462;32.608;-117.032;2023-03-14T02:43:01;99684.85;;;26.91;38.90
60646;BME280;46462;32.608;-117.032;2023-03-14T02:45:37;99689.29;;;26.87;38.99
60646;BME280;46462;32.608;-117.032;2023-03-14T02:48:06;99695.16;;;26.85;38.97
60646;BME280;46462;32.608;-117.032;2023-03-14T02:50:34;99697.50;;;26.84;38.97
60646;BME280;46462;32.608;-117.032;2023-03-14T02:53:04;99701.13;;;26.85;38.93
60646;BME280;46462;32.608;-117.032;2023-03-14T02:55:34;99699.61;;;26.86;38.93
60646;BME280;46462;32.608;-117.032;2023-03-14T02:58:05;99699.83;;;26.84;38.92
60646;BME280;46462;32.608;-117.032;2023-03-14T03:00:36;99702.41;;;26.83;38.90
60646;BME280;46462;32.608;-117.032;2023-03-14T03:03:06;99701.97;;;26.85;38.84
60646;BME280;46462;32.608;-117.032;2023-03-14T03:05:37;99710.35;;;26.86;38.80
60646;BME280;46462;32.608;-117.032;2023-03-14T03:08:08;99718.03;;;26.87;38.72
60646;BME280;46462;32.608;-117.032;2023-03-14T03:10:38;99722.58;;;26.85;38.75
60646;BME280;46462;32.608;-117.032;2023-03-14T03:13:09;99725.46;;;26.84;38.76
60646;BME280;46462;32.608;-117.032;2023-03-14T03:15:40;99728.93;;;26.84;38.77
60646;BME280;46462;32.608;-117.032;2023-03-14T03:18:11;99731.99;;;26.84;38.74
60646;BME280;46462;32.608;-117.032;2023-03-14T03:20:41;99736.47;;;26.83;38.73
60646;BME280;46462;32.608;-117.032;2023-03-14T03:23:12;99742.95;;;26.83;38.72
60646;BME280;46462;32.608;-117.032;2023-03-14T03:25:46;99743.42;;;26.80;38.74
60646;BME280;46462;32.608;-117.032;2023-03-14T03:28:13;99743.42;;;26.82;38.70
60646;BME280;46462;32.608;-117.032;2023-03-14T03:30:44;99741.94;;;26.77;38.79
60646;BME280;46462;32.608;-117.032;2023-03-14T03:33:15;99741.95;;;26.74;38.80
60646;BME280;46462;32.608;-117.032;2023-03-14T03:35:47;99748.97;;;26.72;38.84
60646;BME280;46462;32.608;-117.032;2023-03-14T03:38:16;99752.89;;;26.72;38.84
60646;BME280;46462;32.608;-117.032;2023-03-14T03:40:47;99750.62;;;26.69;38.84
60646;BME280;46462;32.608;-117.032;2023-03-14T03:43:17;99756.27;;;26.68;38.83
60646;BME280;46462;32.608;-117.032;2023-03-14T03:45:48;99760.78;;;26.68;38.81
60646;BME280;46462;32.608;-117.032;2023-03-14T03:48:19;99766.59;;;26.65;38.85
60646;BME280;46462;32.608;-117.032;2023-03-14T03:50:49;99773.73;;;26.65;38.83
60646;BME280;46462;32.608;-117.032;2023-03-14T03:53:20;99783.57;;;26.66;38.76
60646;BME280;46462;32.608;-117.032;2023-03-14T03:55:51;99787.49;;;26.68;38.70
60646;BME280;46462;32.608;-117.032;2023-03-14T03:58:21;99789.02;;;26.63;38.79
60646;BME280;46462;32.608;-117.032;2023-03-14T04:00:52;99789.06;;;26.59;38.83
60646;BME280;46462;32.608;-117.032;2023-03-14T04:03:23;99786.21;;;26.59;38.81
60646;BME280;46462;32.608;-117.032;2023-03-14T04:05:58;99789.29;;;26.55;38.87
60646;BME280;46462;32.608;-117.032;2023-03-14T04:08:24;99799.72;;;26.57;38.80
60646;BME280;46462;32.608;-117.032;2023-03-14T04:10:56;99801.01;;;26.57;38.78
60646;BME280;46462;32.608;-117.032;2023-03-14T04:13:26;99803.79;;;26.50;38.90
60646;BME280;46462;32.608;-117.032;2023-03-14T04:15:56;99807.83;;;26.49;38.92
60646;BME280;46462;32.608;-117.032;2023-03-14T04:18:27;99807.55;;;26.51;38.85
60646;BME280;46462;32.608;-117.032;2023-03-14T04:20:58;99809.05;;;26.47;38.95
60646;BME280;46462;32.608;-117.032;2023-03-14T04:23:28;99816.24;;;26.45;38.91
60646;BME280;46462;32.608;-117.032;2023-03-14T04:25:59;99820.48;;;26.44;38.89
60646;BME280;46462;32.608;-117.032;2023-03-14T04:28:30;99823.62;;;26.42;38.94
60646;BME280;46462;32.608;-117.032;2023-03-14T04:31:09;99822.75;;;26.41;38.92
60646;BME280;46462;32.608;-117.032;2023-03-14T04:33:31;99824.46;;;26.39;38.91
60646;BME280;46462;32.608;-117.032;2023-03-14T04:36:02;99827.13;;;26.38;38.93
60646;BME280;46462;32.608;-117.032;2023-03-14T04:38:33;99827.52;;;26.39;38.88
60646;BME280;46462;32.608;-117.032;2023-03-14T04:41:04;99828.20;;;26.39;38.84
60646;BME280;46462;32.608;-117.032;2023-03-14T04:43:34;99827.95;;;26.38;38.83
60646;BME280;46462;32.608;-117.032;2023-03-14T04:46:05;99829.33;;;26.38;38.80
60646;BME280;46462;32.608;-117.032;2023-03-14T04:48:35;99827.48;;;26.37;38.79
60646;BME280;46462;32.608;-117.032;2023-03-14T04:51:06;99830.80;;;26.34;38.82
60646;BME280;46462;32.608;-117.032;2023-03-14T04:53:37;99831.68;;;26.31;38.83
60646;BME280;46462;32.608;-117.032;2023-03-14T04:56:08;99829.08;;;26.32;38.77
60646;BME280;46462;32.608;-117.032;2023-03-14T04:58:38;99825.61;;;26.29;38.83
60646;BME280;46462;32.608;-117.032;2023-03-14T05:01:09;99826.40;;;26.27;38.83
60646;BME280;46462;32.608;-117.032;2023-03-14T05:03:39;99828.73;;;26.28;38.79
60646;BME280;46462;32.608;-117.032;2023-03-14T05:06:10;99829.80;;;26.27;38.75
60646;BME280;46462;32.608;-117.032;2023-03-14T05:08:41;99829.74;;;26.26;38.75
60646;BME280;46462;32.608;-117.032;2023-03-14T05:11:12;99826.99;;;26.24;38.78
60646;BME280;46462;32.608;-117.032;2023-03-14T05:13:42;99824.87;;;26.23;38.71
60646;BME280;46462;32.608;-117.032;2023-03-14T05:16:13;99824.30;;;26.22;38.73
60646;BME280;46462;32.608;-117.032;2023-03-14T05:18:43;99821.15;;;26.23;38.66
60646;BME280;46462;32.608;-117.032;2023-03-14T05:21:14;99823.35;;;26.21;38.67
60646;BME280;46462;32.608;-117.032;2023-03-14T05:23:45;99825.24;;;26.19;38.70
60646;BME280;46462;32.608;-117.032;2023-03-14T05:26:16;99825.44;;;26.16;38.74
60646;BME280;46462;32.608;-117.032;2023-03-14T05:28:46;99824.45;;;26.13;38.74
60646;BME280;46462;32.608;-117.032;2023-03-14T05:31:17;99824.30;;;26.16;38.62
60646;BME280;46462;32.608;-117.032;2023-03-14T05:33:48;99824.54;;;26.14;38.62
60646;BME280;46462;32.608;-117.032;2023-03-14T05:36:18;99823.73;;;26.10;38.65
60646;BME280;46462;32.608;-117.032;2023-03-14T05:38:49;99821.74;;;26.07;38.70
60646;BME280;46462;32.608;-117.032;2023-03-14T05:41:20;99819.60;;;26.04;38.72
60646;BME280;46462;32.608;-117.032;2023-03-14T05:43:50;99817.64;;;26.04;38.70
60646;BME280;46462;32.608;-117.032;2023-03-14T05:46:25;99814.53;;;26.03;38.68
60646;BME280;46462;32.608;-117.032;2023-03-14T05:48:52;99809.46;;;26.02;38.67
60646;BME280;46462;32.608;-117.032;2023-03-14T05:51:23;99803.53;;;25.99;38.69
60646;BME280;46462;32.608;-117.032;2023-03-14T05:53:53;99797.67;;;25.99;38.68
60646;BME280;46462;32.608;-117.032;2023-03-14T05:56:24;99801.83;;;25.93;38.77
60646;BME280;46462;32.608;-117.032;2023-03-14T05:58:55;99797.79;;;25.89;38.79
60646;BME280;46462;32.608;-117.032;2023-03-14T06:01:25;99798.46;;;25.91;38.76
60646;BME280;46462;32.608;-117.032;2023-03-14T06:03:56;99800.75;;;25.85;38.80
60646;BME280;46462;32.608;-117.032;2023-03-14T06:06:27;99803.58;;;25.82;38.84
60646;BME280;46462;32.608;-117.032;2023-03-14T06:08:57;99809.90;;;25.83;38.83
60646;BME280;46462;32.608;-117.032;2023-03-14T06:11:28;99811.63;;;25.81;38.83
60646;BME280;46462;32.608;-117.032;2023-03-14T06:13:59;99811.87;;;25.81;38.78
60646;BME280;46462;32.608;-117.032;2023-03-14T06:16:29;99816.63;;;25.83;38.71
60646;BME280;46462;32.608;-117.032;2023-03-14T06:19:00;99816.62;;;25.81;38.72
60646;BME280;46462;32.608;-117.032;2023-03-14T06:21:31;99820.42;;;25.84;38.62
60646;BME280;46462;32.608;-117.032;2023-03-14T06:24:02;99815.40;;;25.86;38.55
60646;BME280;46462;32.608;-117.032;2023-03-14T06:26:32;99813.57;;;25.88;38.47
60646;BME280;46462;32.608;-117.032;2023-03-14T06:29:03;99811.66;;;25.89;38.40
60646;BME280;46462;32.608;-117.032;2023-03-14T06:31:34;99804.83;;;25.85;38.47
60646;BME280;46462;32.608;-117.032;2023-03-14T06:34:05;99802.69;;;25.80;38.54
60646;BME280;46462;32.608;-117.032;2023-03-14T06:36:35;99802.28;;;25.82;38.46
60646;BME280;46462;32.608;-117.032;2023-03-14T06:39:06;99797.66;;;25.79;38.48
60646;BME280;46462;32.608;-117.032;2023-03-14T06:41:37;99797.32;;;25.78;38.46
60646;BME280;46462;32.608;-117.032;2023-03-14T06:44:07;99791.50;;;25.75;38.48
60646;BME280;46462;32.608;-117.032;2023-03-14T06:46:38;99792.72;;;25.75;38.46
60646;BME280;46462;32.608;-117.032;2023-03-14T06:49:09;99786.84;;;25.71;38.51
60646;BME280;46462;32.608;-117.032;2023-03-14T06:51:39;99782.36;;;25.70;38.45
60646;BME280;46462;32.608;-117.032;2023-03-14T06:54:10;99780.64;;;25.67;38.46
60646;BME280;46462;32.608;-117.032;2023-03-14T06:56:41;99777.09;;;25.66;38.48
60646;BME280;46462;32.608;-117.032;2023-03-14T06:59:12;99774.56;;;25.66;38.45
60646;BME280;46462;32.608;-117.032;2023-03-14T07:01:42;99771.35;;;25.68;38.39
60646;BME280;46462;32.608;-117.032;2023-03-14T07:04:13;99768.91;;;25.66;38.37
60646;BME280;46462;32.608;-117.032;2023-03-14T07:06:44;99762.70;;;25.65;38.34
60646;BME280;46462;32.608;-117.032;2023-03-14T07:09:15;99755.28;;;25.63;38.36
60646;BME280;46462;32.608;-117.032;2023-03-14T07:11:45;99753.11;;;25.63;38.31
60646;BME280;46462;32.608;-117.032;2023-03-14T07:14:16;99746.61;;;25.60;38.29
60646;BME280;46462;32.608;-117.032;2023-03-14T07:16:47;99742.66;;;25.61;38.26
60646;BME280;46462;32.608;-117.032;2023-03-14T07:19:18;99735.02;;;25.57;38.29
60646;BME280;46462;32.608;-117.032;2023-03-14T07:21:48;99731.50;;;25.54;38.31
60646;BME280;46462;32.608;-117.032;2023-03-14T07:24:19;99727.89;;;25.53;38.30
60646;BME280;46462;32.608;-117.032;2023-03-14T07:26:50;99722.62;;;25.51;38.32
60646;BME280;46462;32.608;-117.032;2023-03-14T07:29:20;99711.53;;;25.49;38.29
60646;BME280;46462;32.608;-117.032;2023-03-14T07:31:51;99707.66;;;25.46;38.37
60646;BME280;46462;32.608;-117.032;2023-03-14T07:34:22;99709.12;;;25.46;38.31
60646;BME280;46462;32.608;-117.032;2023-03-14T07:36:53;99711.43;;;25.48;38.23
60646;BME280;46462;32.608;-117.032;2023-03-14T07:39:23;99713.19;;;25.43;38.26
60646;BME280;46462;32.608;-117.032;2023-03-14T07:41:54;99710.74;;;25.42;38.29
60646;BME280;46462;32.608;-117.032;2023-03-14T07:44:25;99710.10;;;25.39;38.24
60646;BME280;46462;32.608;-117.032;2023-03-14T07:46:55;99704.53;;;25.38;38.23
60646;BME280;46462;32.608;-117.032;2023-03-14T07:49:26;99694.91;;;25.33;38.25
60646;BME280;46462;32.608;-117.032;2023-03-14T07:51:57;99689.73;;;25.37;38.18
60646;BME280;46462;32.608;-117.032;2023-03-14T07:54:28;99686.98;;;25.30;38.24
60646;BME280;46462;32.608;-117.032;2023-03-14T07:56:58;99686.15;;;25.32;38.18
60646;BME280;46462;32.608;-117.032;2023-03-14T07:59:29;99691.54;;;25.28;38.19
60646;BME280;46462;32.608;-117.032;2023-03-14T08:02:00;99691.57;;;25.30;38.14
60646;BME280;46462;32.608;-117.032;2023-03-14T08:04:30;99691.84;;;25.25;38.23
60646;BME280;46462;32.608;-117.032;2023-03-14T08:07:01;99685.88;;;25.18;38.34
60646;BME280;46462;32.608;-117.032;2023-03-14T08:09:32;99682.65;;;25.11;38.45
60646;BME280;46462;32.608;-117.032;2023-03-14T08:12:03;99681.37;;;25.12;38.42
60646;BME280;46462;32.608;-117.032;2023-03-14T08:14:34;99683.99;;;25.14;38.34
60646;BME280;46462;32.608;-117.032;2023-03-14T08:17:05;99687.60;;;25.09;38.44
60646;BME280;46462;32.608;-117.032;2023-03-14T08:19:35;99687.11;;;25.10;38.36
60646;BME280;46462;32.608;-117.032;2023-03-14T08:22:06;99690.83;;;25.08;38.39
60646;BME280;46462;32.608;-117.032;2023-03-14T08:24:36;99692.09;;;25.13;38.23
60646;BME280;46462;32.608;-117.032;2023-03-14T08:27:07;99689.13;;;25.09;38.27
60646;BME280;46462;32.608;-117.032;2023-03-14T08:29:38;99687.14;;;25.10;38.20
60646;BME280;46462;32.608;-117.032;2023-03-14T08:32:09;99683.45;;;25.11;38.16
60646;BME280;46462;32.608;-117.032;2023-03-14T08:34:39;99684.64;;;25.10;38.15
60646;BME280;46462;32.608;-117.032;2023-03-14T08:37:10;99680.02;;;25.13;38.08
60646;BME280;46462;32.608;-117.032;2023-03-14T08:39:41;99676.41;;;25.15;37.98
60646;BME280;46462;32.608;-117.032;2023-03-14T08:42:11;99671.99;;;25.12;38.06
60646;BME280;46462;32.608;-117.032;2023-03-14T08:44:42;99672.29;;;25.15;37.95
60646;BME280;46462;32.608;-117.032;2023-03-14T08:47:13;99666.59;;;25.11;37.99
60646;BME280;46462;32.608;-117.032;2023-03-14T08:49:44;99665.63;;;25.06;38.06
60646;BME280;46462;32.608;-117.032;2023-03-14T08:52:14;99660.98;;;25.06;38.07
60646;BME280;46462;32.608;-117.032;2023-03-14T08:54:45;99654.68;;;25.06;37.97
60646;BME280;46462;32.608;-117.032;2023-03-14T08:57:16;99652.92;;;25.05;37.96
60646;BME280;46462;32.608;-117.032;2023-03-14T08:59:46;99655.11;;;25.04;38.00
60646;BME280;46462;32.608;-117.032;2023-03-14T09:02:17;99658.02;;;25.06;37.91
60646;BME280;46462;32.608;-117.032;2023-03-14T09:04:49;99656.76;;;25.05;37.88
60646;BME280;46462;32.608;-117.032;2023-03-14T09:07:19;99651.80;;;25.07;37.84
60646;BME280;46462;32.608;-117.032;2023-03-14T09:09:49;99648.74;;;25.04;37.82
60646;BME280;46462;32.608;-117.032;2023-03-14T09:12:20;99645.80;;;25.06;37.77
60646;BME280;46462;32.608;-117.032;2023-03-14T09:14:51;99640.55;;;25.05;37.75
60646;BME280;46462;32.608;-117.032;2023-03-14T09:17:22;99641.35;;;25.03;37.76
60646;BME280;46462;32.608;-117.032;2023-03-14T09:19:52;99640.13;;;24.93;37.96
60646;BME280;46462;32.608;-117.032;2023-03-14T09:22:23;99640.71;;;24.97;37.81
60646;BME280;46462;32.608;-117.032;2023-03-14T09:24:54;99638.27;;;24.94;37.88
60646;BME280;46462;32.608;-117.032;2023-03-14T09:27:25;99635.08;;;24.95;37.83
60646;BME280;46462;32.608;-117.032;2023-03-14T09:29:55;99632.08;;;24.96;37.80
60646;BME280;46462;32.608;-117.032;2023-03-14T09:32:26;99637.26;;;24.87;37.96
60646;BME280;46462;32.608;-117.032;2023-03-14T09:34:57;99641.85;;;24.88;37.87
60646;BME280;46462;32.608;-117.032;2023-03-14T09:37:28;99640.90;;;24.89;37.84
60646;BME280;46462;32.608;-117.032;2023-03-14T09:39:58;99633.98;;;24.80;37.99
60646;BME280;46462;32.608;-117.032;2023-03-14T09:42:29;99629.53;;;24.76;38.06
60646;BME280;46462;32.608;-117.032;2023-03-14T09:45:03;99624.88;;;24.83;37.87
60646;BME280;46462;32.608;-117.032;2023-03-14T09:47:31;99622.43;;;24.70;38.11
60646;BME280;46462;32.608;-117.032;2023-03-14T09:50:02;99619.22;;;24.71;38.05
60646;BME280;46462;32.608;-117.032;2023-03-14T09:52:33;99616.09;;;24.73;37.97
60646;BME280;46462;32.608;-117.032;2023-03-14T09:55:11;99610.80;;;24.70;38.01
60646;BME280;46462;32.608;-117.032;2023-03-14T09:57:37;99604.13;;;24.69;37.99
60646;BME280;46462;32.608;-117.032;2023-03-14T10:00:14;99601.73;;;24.64;38.07
60646;BME280;46462;32.608;-117.032;2023-03-14T10:02:38;99598.67;;;24.66;38.01
60646;BME280;46462;32.608;-117.032;2023-03-14T10:05:15;99593.58;;;24.59;38.11
60646;BME280;46462;32.608;-117.032;2023-03-14T10:07:38;99585.88;;;24.60;38.11
60646;BME280;46462;32.608;-117.032;2023-03-14T10:10:12;99585.22;;;24.60;38.06
60646;BME280;46462;32.608;-117.032;2023-03-14T10:12:40;99578.83;;;24.60;38.02
60646;BME280;46462;32.608;-117.032;2023-03-14T10:15:13;99578.61;;;24.55;38.10
60646;BME280;46462;32.608;-117.032;2023-03-14T10:17:43;99576.21;;;24.58;38.01
60646;BME280;46462;32.608;-117.032;2023-03-14T10:22:43;99575.97;;;24.61;37.87
60646;BME280;46462;32.608;-117.032;2023-03-14T10:27:44;99576.32;;;24.53;38.00
60646;BME280;46462;32.608;-117.032;2023-03-14T10:32:46;99574.49;;;24.53;37.87
60646;BME280;46462;32.608;-117.032;2023-03-14T10:35:22;99570.24;;;24.56;37.81
60646;BME280;46462;32.608;-117.032;2023-03-14T10:37:52;99566.24;;;24.57;37.74
60646;BME280;46462;32.608;-117.032;2023-03-14T10:40:19;99552.29;;;24.54;37.79
60646;BME280;46462;32.608;-117.032;2023-03-14T10:42:49;99537.82;;;24.56;37.69
60646;BME280;46462;32.608;-117.032;2023-03-14T10:45:31;99523.69;;;24.46;37.86
60646;BME280;46462;32.608;-117.032;2023-03-14T10:47:51;99519.68;;;24.51;37.74
60646;BME280;46462;32.608;-117.032;2023-03-14T10:50:26;99514.42;;;24.48;37.80
60646;BME280;46462;32.608;-117.032;2023-03-14T10:52:53;99501.74;;;24.52;37.69
60646;BME280;46462;32.608;-117.032;2023-03-14T10:55:24;99493.44;;;24.47;37.73
60646;BME280;46462;32.608;-117.032;2023-03-14T10:57:53;99497.66;;;24.51;37.63
60646;BME280;46462;32.608;-117.032;2023-03-14T11:00:24;99502.10;;;24.51;37.64
60646;BME280;46462;32.608;-117.032;2023-03-14T11:03:03;99507.06;;;24.55;37.53
60646;BME280;46462;32.608;-117.032;2023-03-14T11:05:31;99510.84;;;24.55;37.52
60646;BME280;46462;32.608;-117.032;2023-03-14T11:08:00;99506.27;;;24.54;37.51
60646;BME280;46462;32.608;-117.032;2023-03-14T11:10:32;99499.23;;;24.51;37.55
60646;BME280;46462;32.608;-117.032;2023-03-14T11:13:04;99502.09;;;24.54;37.46
60646;BME280;46462;32.608;-117.032;2023-03-14T11:15:32;99504.99;;;24.53;37.44
60646;BME280;46462;32.608;-117.032;2023-03-14T11:20:36;99504.78;;;24.42;37.60
60646;BME280;46462;32.608;-117.032;2023-03-14T11:23:07;99504.42;;;24.45;37.48
60646;BME280;46462;32.608;-117.032;2023-03-14T11:25:35;99513.31;;;24.45;37.47
60646;BME280;46462;32.608;-117.032;2023-03-14T11:28:09;99513.37;;;24.38;37.55
60646;BME280;46462;32.608;-117.032;2023-03-14T11:30:37;99508.54;;;24.30;37.68
60646;BME280;46462;32.608;-117.032;2023-03-14T11:33:14;99500.49;;;24.26;37.79
60646;BME280;46462;32.608;-117.032;2023-03-14T11:35:37;99492.00;;;24.17;37.95
60646;BME280;46462;32.608;-117.032;2023-03-14T11:38:13;99488.74;;;24.27;37.74
60646;BME280;46462;32.608;-117.032;2023-03-14T11:40:36;99489.49;;;24.23;37.74
60646;BME280;46462;32.608;-117.032;2023-03-14T11:43:13;99494.47;;;24.22;37.76
60646;BME280;46462;32.608;-117.032;2023-03-14T11:45:39;99502.13;;;24.23;37.74
60646;BME280;46462;32.608;-117.032;2023-03-14T11:48:16;99496.49;;;24.22;37.72
60646;BME280;46462;32.608;-117.032;2023-03-14T11:50:39;99495.51;;;24.15;37.81
60646;BME280;46462;32.608;-117.032;2023-03-14T11:53:13;99506.97;;;24.11;37.90
60646;BME280;46462;32.608;-117.032;2023-03-14T11:55:42;99505.81;;;24.14;37.79
60646;BME280;46462;32.608;-117.032;2023-03-14T11:58:15;99503.07;;;24.07;37.89
60646;BME280;46462;32.608;-117.032;2023-03-14T12:00:42;99499.99;;;24.11;37.80
60646;BME280;46462;32.608;-117.032;2023-03-14T12:03:19;99493.55;;;24.07;37.90
60646;BME280;46462;32.608;-117.032;2023-03-14T12:05:53;99480.58;;;24.05;37.92
60646;BME280;46462;32.608;-117.032;2023-03-14T12:08:29;99467.71;;;23.91;38.16
60646;BME280;46462;32.608;-117.032;2023-03-14T12:10:48;99471.71;;;23.95;38.07
60646;BME280;46462;32.608;-117.032;2023-03-14T12:13:16;99483.13;;;24.01;37.91
60646;BME280;46462;32.608;-117.032;2023-03-14T12:15:49;99489.77;;;24.03;37.87
60646;BME280;46462;32.608;-117.032;2023-03-14T12:18:21;99488.11;;;24.01;37.87
60646;BME280;46462;32.608;-117.032;2023-03-14T12:20:53;99488.75;;;23.98;37.87
60646;BME280;46462;32.608;-117.032;2023-03-14T12:23:19;99495.93;;;24.02;37.84
60646;BME280;46462;32.608;-117.032;2023-03-14T12:28:22;99498.79;;;23.99;37.80
60646;BME280;46462;32.608;-117.032;2023-03-14T12:30:51;99505.24;;;24.07;37.65
60646;BME280;46462;32.608;-117.032;2023-03-14T12:33:27;99506.16;;;24.00;37.74
60646;BME280;46462;32.608;-117.032;2023-03-14T12:35:57;99514.58;;;24.01;37.72
60646;BME280;46462;32.608;-117.032;2023-03-14T12:38:31;99522.09;;;23.97;37.76
60646;BME280;46462;32.608;-117.032;2023-03-14T12:41:00;99522.77;;;23.98;37.72
60646;BME280;46462;32.608;-117.032;2023-03-14T12:43:27;99517.30;;;23.99;37.64
60646;BME280;46462;32.608;-117.032;2023-03-14T12:48:27;99510.96;;;24.01;37.55
60646;BME280;46462;32.608;-117.032;2023-03-14T12:51:03;99509.26;;;24.06;37.43
60646;BME280;46462;32.608;-117.032;2023-03-14T12:56:05;99507.66;;;23.92;37.66
60646;BME280;46462;32.608;-117.032;2023-03-14T12:58:33;99507.82;;;24.05;37.39
60646;BME280;46462;32.608;-117.032;2023-03-14T13:01:02;99506.44;;;23.99;37.46
60646;BME280;46462;32.608;-117.032;2023-03-14T13:03:37;99506.70;;;23.98;37.45
60646;BME280;46462;32.608;-117.032;2023-03-14T13:06:03;99507.06;;;23.93;37.53
60646;BME280;46462;32.608;-117.032;2023-03-14T13:08:36;99505.14;;;23.93;37.49